Time;durP1;ratioP1;P1;durP2;ratioP2;P2;SDS_P1;SDS_P2;PMS_P1;PMS_P2;Temp;Humidity;BMP_temperature;BMP_pressure;BME280_temperature;BME280_humidity;BME280_pressure;Samples;Min_cycle;Max_cycle;Signal;HPM_P1;HPM_P2
2022/11/22 00:00:34;;;;;;;9.17;3.57;;;9.80;99.90;;;;;;4949251;28;20486;-67
2022/11/22 00:02:59;;;;;;;10.13;4.10;;;9.80;99.90;;;;;;4947941;28;20213;-68
2022/11/22 00:05:25;;;;;;;6.83;3.90;;;9.80;99.90;;;;;;4943328;28;20195;-68
2022/11/22 00:07:50;;;;;;;11.23;4.63;;;9.70;99.90;;;;;;4955036;28;20211;-68
2022/11/22 00:10:16;;;;;;;4.83;3.30;;;9.70;99.90;;;;;;4945479;28;20183;-67
2022/11/22 00:12:42;;;;;;;6.20;3.83;;;9.70;99.90;;;;;;4953209;28;20551;-67
2022/11/22 00:15:08;;;;;;;10.50;4.13;;;9.60;99.90;;;;;;4945825;28;20239;-68
2022/11/22 00:17:34;;;;;;;7.37;3.77;;;9.60;99.90;;;;;;4951889;28;20217;-66
2022/11/22 00:20:00;;;;;;;7.73;4.60;;;9.60;99.90;;;;;;4940857;28;20662;-67
2022/11/22 00:22:26;;;;;;;10.43;4.03;;;9.70;99.90;;;;;;4950779;28;20462;-68
2022/11/22 00:24:52;;;;;;;6.50;4.47;;;9.70;99.90;;;;;;4961780;28;20191;-66
2022/11/22 00:27:19;;;;;;;8.83;5.00;;;9.70;99.90;;;;;;4956502;28;20223;-67
2022/11/22 00:29:45;;;;;;;8.00;4.33;;;9.80;99.90;;;;;;4948561;28;20510;-67
2022/11/22 00:32:10;;;;;;;10.37;5.23;;;9.80;99.90;;;;;;4945752;28;20537;-67
2022/11/22 00:34:36;;;;;;;6.40;4.00;;;9.80;99.90;;;;;;4944911;28;20383;-67
2022/11/22 00:37:01;;;;;;;8.10;4.30;;;9.70;99.90;;;;;;4944154;28;20191;-67
2022/11/22 00:39:27;;;;;;;8.60;4.47;;;9.70;99.90;;;;;;4943946;28;20252;-67
2022/11/22 00:41:52;;;;;;;5.83;3.70;;;9.80;99.90;;;;;;4946821;28;20290;-67
2022/11/22 00:44:18;;;;;;;11.17;4.43;;;9.80;99.90;;;;;;4946776;28;20191;-66
2022/11/22 00:46:43;;;;;;;8.13;4.13;;;9.70;99.90;;;;;;4947255;28;20234;-67
2022/11/22 00:49:09;;;;;;;6.70;3.80;;;9.80;99.90;;;;;;4942584;28;20195;-67
2022/11/22 00:51:35;;;;;;;6.97;3.60;;;9.70;99.90;;;;;;5012974;28;20210;-67
2022/11/22 00:54:00;;;;;;;5.53;3.57;;;9.70;99.90;;;;;;4941617;28;20263;-67
2022/11/22 00:56:26;;;;;;;6.53;4.13;;;9.70;99.90;;;;;;5005066;28;20191;-67
2022/11/22 00:58:51;;;;;;;6.77;3.50;;;9.70;99.90;;;;;;4941965;28;20381;-67
2022/11/22 01:01:17;;;;;;;7.70;3.50;;;9.70;99.90;;;;;;4943400;28;20223;-67
2022/11/22 01:03:42;;;;;;;4.63;2.93;;;9.70;99.90;;;;;;4940935;28;20187;-67
2022/11/22 01:06:08;;;;;;;7.73;2.90;;;9.80;99.90;;;;;;4943191;28;20232;-67
2022/11/22 01:08:34;;;;;;;3.30;2.70;;;9.80;99.90;;;;;;4942818;28;20278;-67
2022/11/22 01:11:00;;;;;;;3.60;2.50;;;9.80;99.90;;;;;;4945097;28;20644;-67
2022/11/22 01:13:27;;;;;;;3.97;2.43;;;9.80;99.90;;;;;;4944690;28;20191;-67
2022/11/22 01:15:58;;;;;;;4.67;2.27;;;9.80;99.90;;;;;;4941299;28;20447;-67
2022/11/22 01:18:23;;;;;;;3.00;2.10;;;9.80;99.90;;;;;;4942267;28;20985;-67
2022/11/22 01:20:49;;;;;;;4.03;2.30;;;9.70;99.90;;;;;;4942626;28;20466;-66
2022/11/22 01:23:14;;;;;;;4.60;1.83;;;9.80;99.90;;;;;;4941618;28;20219;-69
2022/11/22 01:25:43;;;;;;;7.73;2.67;;;9.80;99.90;;;;;;4947096;28;22170;-67
2022/11/22 01:28:08;;;;;;;4.87;2.53;;;9.70;99.90;;;;;;4943586;28;20183;-67
2022/11/22 01:30:34;;;;;;;2.80;1.90;;;9.80;99.90;;;;;;4943742;28;20477;-67
2022/11/22 01:32:59;;;;;;;3.50;2.00;;;9.80;99.90;;;;;;5004072;28;20187;-65
2022/11/22 01:35:25;;;;;;;5.10;2.50;;;9.80;99.90;;;;;;4943861;28;20196;-67
2022/11/22 01:37:50;;;;;;;4.30;2.53;;;9.80;99.90;;;;;;4946408;28;20187;-67
2022/11/22 01:40:16;;;;;;;4.57;2.40;;;9.80;99.90;;;;;;4948918;28;20195;-67
2022/11/22 01:42:49;;;;;;;2.70;2.27;;;9.80;99.90;;;;;;4948824;28;20673;-68
2022/11/22 01:45:29;;;;;;;6.90;2.47;;;9.80;99.90;;;;;;4953487;28;20192;-68
2022/11/22 01:48:06;;;;;;;7.53;2.30;;;9.80;99.90;;;;;;4951479;28;20838;-67
2022/11/22 01:50:35;;;;;;;3.77;2.13;;;9.80;99.90;;;;;;4948500;28;20453;-67
2022/11/22 01:53:05;;;;;;;6.93;3.07;;;9.90;99.90;;;;;;4947251;28;20936;-68
2022/11/22 01:55:31;;;;;;;7.13;2.50;;;9.90;99.90;;;;;;4950094;28;20430;-68
2022/11/22 01:57:57;;;;;;;3.87;2.20;;;9.80;99.90;;;;;;4950792;28;20731;-67
2022/11/22 02:00:23;;;;;;;5.70;1.87;;;9.90;99.90;;;;;;4952216;28;20451;-67
2022/11/22 02:02:54;;;;;;;5.17;2.47;;;9.80;99.90;;;;;;4954314;28;20179;-67
2022/11/22 02:05:22;;;;;;;3.93;2.57;;;9.80;99.90;;;;;;4943543;28;20183;-67
2022/11/22 02:07:52;;;;;;;9.10;2.30;;;9.80;99.90;;;;;;4958051;28;20470;-66
2022/11/22 02:10:21;;;;;;;3.10;2.00;;;9.70;99.90;;;;;;4944018;28;20442;-66
2022/11/22 02:12:49;;;;;;;5.80;2.00;;;9.70;99.90;;;;;;4950777;28;20423;-67
2022/11/22 02:15:15;;;;;;;6.97;2.50;;;9.70;99.90;;;;;;4951989;28;20434;-66
2022/11/22 02:17:41;;;;;;;4.67;2.10;;;9.70;99.90;;;;;;4954366;28;20451;-66
2022/11/22 02:20:07;;;;;;;3.80;2.13;;;9.70;99.90;;;;;;4946817;28;20446;-67
2022/11/22 02:22:46;;;;;;;6.13;2.37;;;9.70;99.90;;;;;;4957875;28;20184;-67
2022/11/22 02:25:15;;;;;;;4.80;2.00;;;9.70;99.90;;;;;;4948384;28;20520;-67
2022/11/22 02:27:41;;;;;;;5.00;2.23;;;9.80;99.90;;;;;;5022708;28;20540;-67
2022/11/22 02:30:07;;;;;;;4.03;2.20;;;9.70;99.90;;;;;;4945493;28;20484;-66
2022/11/22 02:32:33;;;;;;;5.10;2.23;;;9.70;99.90;;;;;;4949397;28;20588;-67
2022/11/22 02:34:59;;;;;;;8.10;1.97;;;9.70;99.90;;;;;;4945848;28;20919;-67
2022/11/22 02:37:28;;;;;;;5.43;2.10;;;9.70;99.90;;;;;;4949287;28;20187;-67
2022/11/22 02:40:01;;;;;;;9.57;2.50;;;9.70;99.90;;;;;;4945284;28;20798;-66
2022/11/22 02:42:29;;;;;;;6.77;2.37;;;9.80;99.90;;;;;;4948157;28;20458;-67
2022/11/22 02:44:54;;;;;;;4.60;2.20;;;9.80;99.90;;;;;;4951078;28;20439;-67
2022/11/22 02:47:20;;;;;;;4.07;1.97;;;9.80;99.90;;;;;;4942757;28;20509;-66
2022/11/22 02:49:45;;;;;;;9.33;1.90;;;9.80;99.90;;;;;;4950414;28;20192;-67
2022/11/22 02:52:17;;;;;;;6.30;2.30;;;9.80;99.90;;;;;;4946299;28;20763;-67
2022/11/22 02:54:44;;;;;;;4.40;2.47;;;9.70;99.90;;;;;;4952785;28;20199;-67
2022/11/22 02:57:09;;;;;;;6.30;2.13;;;9.70;99.90;;;;;;4944890;28;20831;-67
2022/11/22 02:59:35;;;;;;;6.30;2.00;;;9.80;99.90;;;;;;4956352;28;20435;-67
2022/11/22 03:02:00;;;;;;;12.60;2.80;;;9.80;99.90;;;;;;4948322;28;20239;-67
2022/11/22 03:04:26;;;;;;;7.70;2.70;;;9.80;99.90;;;;;;4940696;28;20235;-66
2022/11/22 03:06:56;;;;;;;4.87;2.13;;;9.80;99.90;;;;;;4953179;28;20226;-66
2022/11/22 03:09:26;;;;;;;7.20;1.97;;;9.80;99.90;;;;;;4944653;28;20195;-67
2022/11/22 03:11:52;;;;;;;5.97;2.50;;;9.80;99.90;;;;;;4942569;28;20817;-66
2022/11/22 03:14:18;;;;;;;7.30;2.27;;;9.80;99.90;;;;;;4949456;28;20439;-67
2022/11/22 03:16:45;;;;;;;4.50;2.30;;;9.80;99.90;;;;;;4942135;28;20434;-66
2022/11/22 03:19:12;;;;;;;5.37;2.20;;;9.80;99.90;;;;;;4951480;28;20196;-67
2022/11/22 03:21:38;;;;;;;12.03;2.30;;;9.80;99.90;;;;;;4942868;28;20455;-67
2022/11/22 03:24:05;;;;;;;6.80;2.47;;;9.80;99.90;;;;;;4942203;28;20454;-67
2022/11/22 03:26:31;;;;;;;4.73;2.43;;;9.70;99.90;;;;;;4942841;28;20966;-67
2022/11/22 03:28:56;;;;;;;9.17;2.67;;;9.70;99.90;;;;;;4947356;28;20527;-67
2022/11/22 03:31:22;;;;;;;13.47;2.87;;;9.60;99.90;;;;;;4949716;28;20514;-67
2022/11/22 03:33:47;;;;;;;8.80;2.33;;;9.60;99.90;;;;;;5021577;28;20211;-66
2022/11/22 03:36:13;;;;;;;8.60;2.60;;;9.60;99.90;;;;;;4948999;28;20225;-67
2022/11/22 03:38:38;;;;;;;8.90;2.80;;;9.60;99.90;;;;;;4943574;28;20219;-67
2022/11/22 03:41:04;;;;;;;5.80;2.47;;;9.60;99.90;;;;;;4950321;28;20285;-67
2022/11/22 03:43:30;;;;;;;4.87;2.50;;;9.60;99.90;;;;;;4949992;28;20184;-66
2022/11/22 03:45:55;;;;;;;3.60;2.10;;;9.60;99.90;;;;;;4947249;28;20266;-67
2022/11/22 03:48:21;;;;;;;7.67;2.30;;;9.60;99.90;;;;;;4949409;28;20559;-66
2022/11/22 03:50:46;;;;;;;5.63;2.40;;;9.70;99.90;;;;;;4942787;28;20298;-67
2022/11/22 03:53:12;;;;;;;8.57;2.20;;;9.70;99.90;;;;;;4943720;28;20263;-66
2022/11/22 03:55:38;;;;;;;6.63;2.40;;;9.70;99.90;;;;;;4943450;28;20187;-68
2022/11/22 03:58:04;;;;;;;8.70;2.50;;;9.70;99.90;;;;;;4944783;28;20221;-66
2022/11/22 04:00:30;;;;;;;9.83;2.60;;;9.70;99.90;;;;;;4943180;28;20494;-67
2022/11/22 04:02:56;;;;;;;6.13;2.40;;;9.70;99.90;;;;;;4942387;28;20191;-67
2022/11/22 04:05:21;;;;;;;10.23;2.40;;;9.70;99.90;;;;;;5007381;28;20674;-67
2022/11/22 04:07:47;;;;;;;7.13;2.10;;;9.60;99.90;;;;;;4945977;28;20673;-67
2022/11/22 04:10:13;;;;;;;9.70;2.40;;;9.60;99.90;;;;;;4941551;28;20187;-67
2022/11/22 04:12:39;;;;;;;8.20;3.00;;;9.60;99.90;;;;;;4942209;28;20451;-66
2022/11/22 04:15:08;;;;;;;13.43;3.73;;;9.50;99.90;;;;;;4946668;28;20180;-66
2022/11/22 04:17:40;;;;;;;8.87;2.97;;;9.50;99.90;;;;;;4951384;28;20188;-67
2022/11/22 04:23:06;;;;;;;11.20;2.77;;;9.50;99.90;;;;;;4946178;28;20450;-67
2022/11/22 04:25:35;;;;;;;11.50;2.67;;;9.50;99.90;;;;;;4950750;28;20443;-67
2022/11/22 04:28:01;;;;;;;6.37;2.40;;;9.50;99.90;;;;;;4942624;28;20984;-67
2022/11/22 04:33:13;;;;;;;5.63;2.60;;;9.50;99.90;;;;;;4941689;28;20406;-67
2022/11/22 04:35:39;;;;;;;9.93;3.40;;;9.50;99.90;;;;;;4942293;28;20484;-67
2022/11/22 04:38:05;;;;;;;10.37;2.93;;;9.50;99.90;;;;;;4942060;28;20438;-67
2022/11/22 04:40:32;;;;;;;48.80;3.67;;;9.50;99.90;;;;;;4945130;28;20446;-67
2022/11/22 04:45:42;;;;;;;7.90;2.30;;;9.40;99.90;;;;;;4945260;28;20437;-67
2022/11/22 04:48:09;;;;;;;7.97;3.30;;;9.40;99.90;;;;;;4950625;28;20443;-67
2022/11/22 04:53:19;;;;;;;6.27;2.33;;;9.50;99.90;;;;;;4949868;28;20442;-67
2022/11/22 04:55:45;;;;;;;13.43;2.73;;;9.40;99.90;;;;;;4950378;28;20431;-67
2022/11/22 04:58:12;;;;;;;13.33;3.47;;;9.40;99.90;;;;;;4949590;28;20184;-67
2022/11/22 05:00:38;;;;;;;16.17;3.30;;;9.40;99.90;;;;;;4941873;28;20503;-67
2022/11/22 05:03:04;;;;;;;10.93;4.00;;;9.40;99.90;;;;;;4956251;28;20426;-66
2022/11/22 05:05:33;;;;;;;6.83;2.50;;;9.30;99.90;;;;;;4948047;28;20529;-67
2022/11/22 05:07:58;;;;;;;6.33;2.40;;;9.30;99.90;;;;;;4956293;28;20527;-68
2022/11/22 05:10:24;;;;;;;6.67;2.40;;;9.20;99.90;;;;;;4939232;28;20482;-67
2022/11/22 05:12:50;;;;;;;9.23;2.83;;;9.30;99.90;;;;;;4946437;28;20187;-67
2022/11/22 05:15:16;;;;;;;9.43;2.77;;;9.30;99.90;;;;;;4943356;28;20449;-67
2022/11/22 05:17:41;;;;;;;10.43;2.40;;;9.40;99.90;;;;;;5009113;28;20244;-67
2022/11/22 05:20:08;;;;;;;8.60;2.27;;;9.40;99.90;;;;;;4941838;28;20728;-67
2022/11/22 05:25:18;;;;;;;12.40;3.40;;;9.30;99.90;;;;;;4945104;28;20998;-67
2022/11/22 05:27:44;;;;;;;10.27;2.50;;;9.30;99.90;;;;;;4946070;28;20478;-67
2022/11/22 05:30:10;;;;;;;4.20;2.00;;;9.30;99.90;;;;;;4947082;28;20510;-67
2022/11/22 05:32:35;;;;;;;12.00;2.73;;;9.20;99.90;;;;;;4942176;28;20194;-66
2022/11/22 05:35:01;;;;;;;6.00;2.43;;;9.30;99.90;;;;;;4947186;28;20834;-67
2022/11/22 05:37:27;;;;;;;6.70;2.40;;;9.30;99.90;;;;;;4946757;28;20844;-66
2022/11/22 05:39:53;;;;;;;9.37;3.03;;;9.30;99.90;;;;;;4945237;28;20458;-68
2022/11/22 05:42:18;;;;;;;8.17;2.90;;;9.20;99.90;;;;;;4950210;28;20447;-67
2022/11/22 05:44:44;;;;;;;6.97;2.40;;;9.20;99.90;;;;;;4942854;28;20249;-67
2022/11/22 05:47:10;;;;;;;5.00;2.63;;;9.30;99.90;;;;;;4945475;28;20215;-67
2022/11/22 05:49:35;;;;;;;6.90;2.43;;;9.20;99.90;;;;;;4941346;28;20187;-67
2022/11/22 05:52:02;;;;;;;9.70;3.47;;;9.30;99.90;;;;;;4943412;28;20203;-68
2022/11/22 05:54:29;;;;;;;6.20;2.50;;;9.20;99.90;;;;;;4941104;28;20196;-68
2022/11/22 05:56:55;;;;;;;6.50;2.60;;;9.20;99.90;;;;;;4940945;28;20485;-68
2022/11/22 05:59:20;;;;;;;8.27;2.60;;;9.20;99.90;;;;;;4943773;28;20447;-68
2022/11/22 06:01:46;;;;;;;11.60;3.20;;;9.20;99.90;;;;;;4947536;28;20462;-67
2022/11/22 06:04:11;;;;;;;9.10;3.07;;;9.20;99.90;;;;;;4945863;28;20191;-67
2022/11/22 06:06:37;;;;;;;11.93;3.03;;;9.10;99.90;;;;;;4948453;28;20218;-68
2022/11/22 06:09:03;;;;;;;12.40;2.47;;;9.10;99.90;;;;;;4939747;28;20191;-68
2022/11/22 06:11:29;;;;;;;11.07;4.30;;;9.00;99.90;;;;;;4941069;28;20211;-68
2022/11/22 06:13:59;;;;;;;9.47;2.87;;;8.90;99.90;;;;;;5005985;28;20967;-68
2022/11/22 06:16:25;;;;;;;8.30;3.03;;;8.90;99.90;;;;;;4941408;28;20542;-67
2022/11/22 06:18:53;;;;;;;5.17;2.73;;;8.90;99.90;;;;;;4943846;28;20877;-66
2022/11/22 06:21:23;;;;;;;6.07;2.10;;;8.90;99.90;;;;;;4943539;28;20752;-67
2022/11/22 06:23:52;;;;;;;8.70;2.33;;;8.90;99.90;;;;;;4948166;28;20439;-66
2022/11/22 06:26:20;;;;;;;13.30;3.60;;;8.80;99.90;;;;;;4941561;28;20470;-67
2022/11/22 06:28:47;;;;;;;3.53;2.20;;;8.80;99.90;;;;;;4954305;28;20939;-66
2022/11/22 06:31:17;;;;;;;9.30;2.97;;;8.80;99.90;;;;;;4945751;28;20458;-67
2022/11/22 06:33:43;;;;;;;12.77;3.23;;;8.80;99.90;;;;;;4953503;28;20426;-66
2022/11/22 06:36:12;;;;;;;11.47;3.00;;;8.90;99.90;;;;;;5010460;28;20928;-67
2022/11/22 06:38:39;;;;;;;10.30;2.97;;;8.80;99.90;;;;;;4946155;28;20430;-67
2022/11/22 06:41:07;;;;;;;14.10;2.90;;;8.80;99.90;;;;;;4947413;28;20466;-67
2022/11/22 06:43:34;;;;;;;9.17;2.73;;;9.00;99.90;;;;;;4951160;28;20870;-67
2022/11/22 06:46:01;;;;;;;12.00;2.93;;;9.00;99.90;;;;;;4951232;28;20451;-67
2022/11/22 06:48:32;;;;;;;7.67;2.73;;;8.90;99.90;;;;;;4953110;28;20438;-67
2022/11/22 06:51:03;;;;;;;8.40;2.83;;;8.90;99.90;;;;;;4948564;28;20459;-67
2022/11/22 06:53:30;;;;;;;7.27;2.57;;;9.00;99.90;;;;;;4949912;28;20512;-67
2022/11/22 06:56:08;;;;;;;7.43;3.47;;;9.10;99.90;;;;;;4953170;28;20530;-67
2022/11/22 06:58:33;;;;;;;7.87;2.80;;;9.10;99.90;;;;;;4950140;28;20441;-67
2022/11/22 07:01:03;;;;;;;15.33;3.33;;;9.20;99.90;;;;;;4944813;28;20475;-66
2022/11/22 07:03:29;;;;;;;9.63;3.07;;;9.10;99.90;;;;;;4949663;28;20858;-67
2022/11/22 07:05:55;;;;;;;10.23;2.60;;;9.10;99.90;;;;;;4947410;28;20439;-67
2022/11/22 07:08:22;;;;;;;10.53;3.40;;;9.10;99.90;;;;;;4953524;28;20187;-67
2022/11/22 07:10:47;;;;;;;7.07;2.63;;;9.10;99.90;;;;;;4951726;28;20803;-68
2022/11/22 07:13:13;;;;;;;8.40;2.77;;;9.10;99.90;;;;;;5009945;28;20423;-68
2022/11/22 07:15:38;;;;;;;8.20;2.73;;;9.20;99.90;;;;;;4947788;28;20183;-66
2022/11/22 07:18:04;;;;;;;7.13;3.50;;;9.30;99.90;;;;;;4945210;28;20267;-67
2022/11/22 07:20:30;;;;;;;4.50;2.83;;;9.40;99.90;;;;;;4940343;28;20246;-67
2022/11/22 07:22:55;;;;;;;12.10;3.07;;;9.40;99.90;;;;;;4953034;28;20233;-67
2022/11/22 07:25:21;;;;;;;7.40;2.47;;;9.30;99.90;;;;;;4943857;28;20199;-67
2022/11/22 07:27:46;;;;;;;9.20;3.33;;;9.40;99.90;;;;;;4948737;28;20230;-67
2022/11/22 07:30:12;;;;;;;10.27;2.90;;;9.40;99.90;;;;;;5008233;28;20258;-66
2022/11/22 07:32:38;;;;;;;9.47;3.77;;;9.30;99.90;;;;;;5008873;28;20262;-66
2022/11/22 07:35:04;;;;;;;6.37;2.50;;;9.40;99.90;;;;;;4947235;28;20541;-67
2022/11/22 07:37:31;;;;;;;9.37;3.13;;;9.30;99.90;;;;;;5004898;28;20252;-67
2022/11/22 07:39:56;;;;;;;6.87;2.60;;;9.30;99.90;;;;;;4944965;28;20931;-67
2022/11/22 07:42:22;;;;;;;10.53;3.07;;;9.30;99.90;;;;;;4950673;28;20473;-67
2022/11/22 07:44:48;;;;;;;6.90;3.90;;;9.30;99.90;;;;;;4944208;28;20237;-67
2022/11/22 07:47:13;;;;;;;7.30;2.70;;;9.30;99.90;;;;;;4944234;28;20218;-67
2022/11/22 07:49:39;;;;;;;4.80;3.33;;;9.30;99.90;;;;;;4939670;28;20198;-67
2022/11/22 07:52:04;;;;;;;8.00;2.57;;;9.30;99.90;;;;;;5007385;28;20527;-68
2022/11/22 07:54:30;;;;;;;7.93;2.57;;;9.40;99.90;;;;;;4944448;28;20345;-68
2022/11/22 07:56:56;;;;;;;9.20;3.23;;;9.40;99.90;;;;;;4944253;28;20199;-67
2022/11/22 07:59:21;;;;;;;4.83;2.47;;;9.50;99.90;;;;;;4943386;28;20721;-67
2022/11/22 08:01:47;;;;;;;6.60;2.37;;;9.40;99.90;;;;;;4946244;28;20246;-67
2022/11/22 08:04:13;;;;;;;11.27;2.50;;;9.40;99.90;;;;;;4942954;28;20559;-67
2022/11/22 08:06:39;;;;;;;4.53;2.40;;;9.40;99.90;;;;;;4945679;28;20243;-67
2022/11/22 08:09:04;;;;;;;14.13;4.53;;;9.40;99.90;;;;;;4943441;28;20463;-67
2022/11/22 08:11:30;;;;;;;11.47;3.43;;;9.40;99.90;;;;;;4942726;28;20207;-67
2022/11/22 08:13:55;;;;;;;7.27;3.10;;;9.40;99.90;;;;;;4944048;28;20184;-67
2022/11/22 08:16:21;;;;;;;6.50;2.93;;;9.30;99.90;;;;;;4948743;28;20195;-67
2022/11/22 08:18:48;;;;;;;6.93;3.10;;;9.30;99.90;;;;;;4945520;28;20188;-67
2022/11/22 08:21:15;;;;;;;7.83;2.70;;;9.40;99.90;;;;;;4950074;28;20219;-67
2022/11/22 08:23:41;;;;;;;11.70;3.80;;;9.40;99.90;;;;;;4949514;28;20438;-67
2022/11/22 08:26:11;;;;;;;8.30;2.63;;;9.30;99.90;;;;;;4951049;28;20525;-67
2022/11/22 08:28:37;;;;;;;9.13;3.23;;;9.30;99.90;;;;;;4941893;28;20931;-67
2022/11/22 08:31:06;;;;;;;3.80;2.50;;;9.20;99.90;;;;;;4954391;28;20467;-67
2022/11/22 08:33:31;;;;;;;7.67;2.70;;;9.30;99.90;;;;;;4949907;28;20791;-67
2022/11/22 08:35:57;;;;;;;5.80;2.40;;;9.40;99.90;;;;;;4954217;28;20415;-67
2022/11/22 08:38:23;;;;;;;6.50;2.60;;;9.40;99.90;;;;;;4947690;28;20657;-67
2022/11/22 08:40:49;;;;;;;5.23;2.43;;;9.40;99.90;;;;;;4944764;28;20211;-67
2022/11/22 08:43:15;;;;;;;7.97;2.60;;;9.40;99.90;;;;;;4944988;28;20565;-67
2022/11/22 08:45:41;;;;;;;5.50;2.70;;;9.40;99.90;;;;;;4946847;28;20450;-67
2022/11/22 08:48:06;;;;;;;9.10;2.40;;;9.50;99.90;;;;;;4945728;28;21045;-67
2022/11/22 08:50:32;;;;;;;9.73;2.20;;;9.50;99.90;;;;;;4955660;28;20290;-67
2022/11/22 08:53:00;;;;;;;9.60;2.60;;;9.50;99.90;;;;;;4943387;28;20191;-67
2022/11/22 08:55:26;;;;;;;6.17;2.30;;;9.50;99.90;;;;;;4959519;28;20176;-67
2022/11/22 08:57:51;;;;;;;5.00;2.40;;;9.40;99.90;;;;;;4944737;28;20523;-67
2022/11/22 09:00:17;;;;;;;15.50;2.63;;;9.50;99.90;;;;;;4952427;28;20226;-67
2022/11/22 09:02:43;;;;;;;7.67;2.57;;;9.50;99.90;;;;;;4943825;28;22155;-66
2022/11/22 09:05:08;;;;;;;9.20;3.23;;;9.50;99.90;;;;;;4939752;28;20227;-67
2022/11/22 09:07:34;;;;;;;5.57;2.00;;;9.60;99.90;;;;;;4941789;28;20684;-67
2022/11/22 09:09:59;;;;;;;10.00;2.60;;;9.60;99.90;;;;;;4945046;28;20381;-66
2022/11/22 09:12:25;;;;;;;6.60;2.70;;;9.60;99.90;;;;;;5006827;28;20235;-66
2022/11/22 09:14:51;;;;;;;4.70;2.20;;;9.60;99.90;;;;;;4943171;28;20194;-67
2022/11/22 09:17:16;;;;;;;10.93;3.70;;;9.60;99.90;;;;;;4949383;28;20231;-67
2022/11/22 09:19:42;;;;;;;11.00;3.87;;;9.70;99.90;;;;;;4949665;28;20187;-67
2022/11/22 09:22:07;;;;;;;7.53;4.53;;;9.70;99.90;;;;;;4950444;28;20211;-67
2022/11/22 09:24:33;;;;;;;8.53;3.33;;;9.70;99.90;;;;;;4947441;28;20191;-67
2022/11/22 09:26:58;;;;;;;6.13;2.90;;;9.80;99.90;;;;;;4941104;28;20650;-67
2022/11/22 09:29:25;;;;;;;4.67;2.27;;;9.80;99.90;;;;;;4951697;28;20297;-67
2022/11/22 09:31:51;;;;;;;3.50;2.40;;;9.80;99.90;;;;;;4948990;28;20248;-67
2022/11/22 09:34:17;;;;;;;8.67;2.90;;;9.80;99.90;;;;;;4952833;28;20431;-67
2022/11/22 09:36:42;;;;;;;10.20;3.57;;;9.90;99.90;;;;;;4947998;28;20191;-67
2022/11/22 09:39:08;;;;;;;6.53;3.23;;;9.90;99.90;;;;;;4949113;28;20434;-67
2022/11/22 09:42:06;;;;;;;8.07;3.03;;;9.90;99.90;;;;;;4946585;28;20821;-66
2022/11/22 09:44:41;;;;;;;5.40;2.70;;;10.00;99.90;;;;;;4984211;28;20203;-68
2022/11/22 09:47:18;;;;;;;8.40;2.27;;;10.10;99.90;;;;;;4941268;28;20478;-68
2022/11/22 09:50:06;;;;;;;7.60;2.67;;;10.20;99.90;;;;;;4942553;28;20418;-68
2022/11/22 09:52:43;;;;;;;10.10;3.70;;;10.20;99.90;;;;;;5020034;28;21000;-67
2022/11/22 09:55:27;;;;;;;8.17;3.00;;;10.20;99.90;;;;;;4942254;28;20595;-68
2022/11/22 09:58:18;;;;;;;9.97;2.67;;;10.20;99.90;;;;;;4942591;28;20441;-67
2022/11/22 10:00:44;;;;;;;5.17;2.20;;;10.20;99.90;;;;;;4941940;28;21006;-67
2022/11/22 10:03:23;;;;;;;5.90;2.53;;;10.20;99.90;;;;;;4945867;28;21079;-67
2022/11/22 10:05:52;;;;;;;6.83;2.23;;;10.20;99.90;;;;;;4944521;28;20437;-67
2022/11/22 10:08:38;;;;;;;7.23;2.43;;;10.20;99.90;;;;;;5010087;28;20451;-67
2022/11/22 10:11:13;;;;;;;4.50;2.20;;;10.30;99.90;;;;;;4953552;28;20481;-67
2022/11/22 10:13:51;;;;;;;8.97;2.83;;;10.20;99.90;;;;;;4944964;28;20427;-67
2022/11/22 10:16:28;;;;;;;6.30;2.47;;;10.30;99.90;;;;;;4952745;28;20443;-68
2022/11/22 10:19:10;;;;;;;6.60;2.60;;;10.20;99.90;;;;;;4951630;28;20422;-68
2022/11/22 10:21:36;;;;;;;6.20;2.30;;;10.20;99.90;;;;;;4947768;28;20458;-68
2022/11/22 10:24:02;;;;;;;4.17;2.20;;;10.20;99.90;;;;;;4948134;28;20430;-68
2022/11/22 10:26:34;;;;;;;3.53;2.20;;;10.20;99.90;;;;;;4943046;28;20211;-66
2022/11/22 10:29:12;;;;;;;5.17;2.50;;;10.20;99.90;;;;;;5011276;28;20788;-66
2022/11/22 10:32:17;;;;;;;10.20;3.37;;;10.30;99.90;;;;;;4951391;28;20442;-66
2022/11/22 10:34:52;;;;;;;7.37;3.80;;;10.30;99.90;;;;;;4947141;28;20507;-67
2022/11/22 10:37:33;;;;;;;8.03;2.70;;;10.40;99.90;;;;;;5024066;28;20990;-66
2022/11/22 10:40:13;;;;;;;7.07;2.60;;;10.40;99.90;;;;;;4950837;28;20445;-66
2022/11/22 10:43:03;;;;;;;5.27;2.80;;;10.50;99.90;;;;;;4942271;28;20466;-67
2022/11/22 10:45:48;;;;;;;6.53;2.57;;;10.60;99.90;;;;;;4949359;28;20430;-66
2022/11/22 10:49:01;;;;;;;7.57;2.60;;;10.70;99.90;;;;;;4952157;28;20905;-66
2022/11/22 10:51:47;;;;;;;7.83;3.03;;;10.70;99.90;;;;;;4948960;28;20458;-66
2022/11/22 10:54:18;;;;;;;9.63;2.70;;;10.80;99.90;;;;;;4948057;28;20439;-66
2022/11/22 10:57:22;;;;;;;7.03;2.20;;;10.80;99.90;;;;;;4946422;28;20475;-67
2022/11/22 11:00:13;;;;;;;4.53;2.70;;;10.90;99.90;;;;;;4962795;28;20446;-67
2022/11/22 11:03:02;;;;;;;3.20;1.90;;;10.90;99.90;;;;;;4943464;28;20438;-66
2022/11/22 11:05:52;;;;;;;8.93;2.30;;;11.00;99.90;;;;;;4942524;28;20431;-67
2022/11/22 11:08:33;;;;;;;8.10;3.63;;;11.00;99.90;;;;;;4945201;28;20467;-67
2022/11/22 11:11:00;;;;;;;8.97;2.73;;;11.10;99.90;;;;;;4953720;28;20454;-67
2022/11/22 11:13:30;;;;;;;7.67;2.83;;;11.10;99.90;;;;;;4943193;28;20455;-67
2022/11/22 11:15:59;;;;;;;4.20;2.33;;;11.20;99.90;;;;;;4950194;28;20447;-67
2022/11/22 11:18:31;;;;;;;5.33;2.30;;;11.30;99.90;;;;;;4943967;28;20415;-67
2022/11/22 11:20:57;;;;;;;7.43;2.30;;;11.30;99.90;;;;;;4960975;28;20841;-66
2022/11/22 11:23:23;;;;;;;5.80;2.50;;;11.30;99.90;;;;;;4945838;28;20445;-67
2022/11/22 11:25:51;;;;;;;6.43;3.17;;;11.20;99.90;;;;;;4953842;28;20863;-67
2022/11/22 11:28:26;;;;;;;6.53;2.93;;;11.20;99.90;;;;;;4955335;28;20207;-66
2022/11/22 11:31:00;;;;;;;6.73;2.10;;;11.30;99.90;;;;;;4956165;28;20469;-66
2022/11/22 11:33:29;;;;;;;22.07;7.57;;;11.40;99.90;;;;;;4950309;28;20493;-66
2022/11/22 11:36:19;;;;;;;6.33;2.37;;;11.30;99.90;;;;;;5009335;28;20538;-67
2022/11/22 11:38:45;;;;;;;6.13;2.13;;;11.40;99.90;;;;;;4954292;28;20879;-67
2022/11/22 11:41:33;;;;;;;6.13;2.23;;;11.40;99.90;;;;;;4942135;28;20553;-67
2022/11/22 11:44:04;;;;;;;6.00;2.67;;;11.60;99.90;;;;;;4946077;28;20266;-67
2022/11/22 11:46:38;;;;;;;7.13;2.17;;;11.60;99.90;;;;;;4957962;28;20843;-67
2022/11/22 11:49:14;;;;;;;9.53;2.50;;;11.60;99.90;;;;;;4942152;28;20525;-67
2022/11/22 11:51:41;;;;;;;5.43;2.30;;;11.50;99.90;;;;;;4941822;28;20473;-67
2022/11/22 11:54:20;;;;;;;5.20;1.87;;;11.50;99.90;;;;;;4941967;28;20741;-67
2022/11/22 11:56:47;;;;;;;3.20;2.00;;;11.60;99.90;;;;;;4942675;28;20893;-67
2022/11/22 11:59:19;;;;;;;7.37;2.00;;;11.60;99.90;;;;;;4939491;28;20447;-67
2022/11/22 12:02:13;;;;;;;6.00;1.97;;;11.60;99.90;;;;;;4947192;28;20454;-67
2022/11/22 12:04:47;;;;;;;4.90;1.87;;;11.60;99.90;;;;;;4952112;28;20522;-67
2022/11/22 12:07:27;;;;;;;5.03;2.50;;;11.60;99.90;;;;;;4944100;28;20461;-67
2022/11/22 12:09:54;;;;;;;5.90;2.33;;;11.60;99.90;;;;;;4943720;28;20421;-67
2022/11/22 12:12:26;;;;;;;6.17;2.33;;;11.60;99.90;;;;;;4942739;28;20470;-67
2022/11/22 12:15:16;;;;;;;5.77;1.80;;;11.70;99.90;;;;;;5001297;28;20482;-67
2022/11/22 12:18:16;;;;;;;7.53;2.10;;;11.80;99.90;;;;;;4940022;28;20442;-67
2022/11/22 12:20:50;;;;;;;5.90;2.20;;;11.90;99.90;;;;;;4951583;28;20515;-72
2022/11/22 12:23:25;;;;;;;5.73;1.90;;;11.90;99.90;;;;;;5007967;28;20438;-70
2022/11/22 12:25:55;;;;;;;4.93;1.80;;;11.90;99.90;;;;;;4940715;28;20879;-69
2022/11/22 12:28:26;;;;;;;10.07;2.43;;;11.90;99.90;;;;;;4949045;28;20482;-69
2022/11/22 12:31:01;;;;;;;5.20;2.37;;;12.10;99.90;;;;;;4955685;28;20797;-67
2022/11/22 12:33:35;;;;;;;5.83;2.40;;;12.00;99.90;;;;;;4949460;28;20491;-67
2022/11/22 12:36:03;;;;;;;6.67;2.17;;;12.20;99.90;;;;;;4948814;28;20450;-68
2022/11/22 12:38:34;;;;;;;5.40;1.80;;;12.20;99.90;;;;;;4939361;28;20439;-69
2022/11/22 12:41:04;;;;;;;6.77;2.50;;;12.10;99.90;;;;;;4939185;28;20670;-68
2022/11/22 12:43:38;;;;;;;4.87;1.97;;;12.00;99.90;;;;;;4939869;28;20522;-68
2022/11/22 12:46:10;;;;;;;5.67;2.17;;;12.00;99.90;;;;;;4935760;28;20432;-67
2022/11/22 12:48:47;;;;;;;3.60;2.07;;;12.20;99.90;;;;;;4937516;28;20438;-68
2022/11/22 12:51:22;;;;;;;2.87;1.83;;;12.10;99.90;;;;;;4940010;28;20438;-67
2022/11/22 12:53:49;;;;;;;4.63;2.37;;;12.20;99.90;;;;;;4947670;28;20442;-67
2022/11/22 12:56:28;;;;;;;5.93;1.80;;;12.30;99.90;;;;;;4943582;28;20885;-67
2022/11/22 12:59:30;;;;;;;3.27;1.90;;;12.30;99.90;;;;;;4949061;28;20434;-68
2022/11/22 13:02:50;;;;;;;6.30;2.30;;;12.20;99.90;;;;;;5006228;28;20581;-68
2022/11/22 13:05:39;;;;;;;4.70;1.83;;;12.20;99.90;;;;;;4979232;28;21074;-68
2022/11/22 13:08:25;;;;;;;5.17;2.17;;;12.10;99.90;;;;;;4941043;28;20608;-67
2022/11/22 13:10:58;;;;;;;3.93;1.97;;;11.90;99.90;;;;;;4946268;28;20531;-69
2022/11/22 13:13:26;;;;;;;3.63;1.80;;;11.80;99.90;;;;;;4944458;28;20435;-68
2022/11/22 13:15:54;;;;;;;6.43;2.07;;;11.80;99.90;;;;;;4943165;28;20427;-68
2022/11/22 13:18:26;;;;;;;3.17;1.77;;;11.70;99.90;;;;;;4940845;28;20450;-68